createdAt,value
2018-09-21T00:00:44.036Z,45.03
2018-09-21T00:03:12.706Z,45.89
2018-09-21T00:05:41.082Z,45.98
2018-09-21T00:08:09.435Z,46.11
2018-09-21T00:10:37.765Z,46.12
2018-09-21T00:13:06.163Z,46.64
2018-09-21T00:15:34.671Z,45.98
2018-09-21T00:18:02.935Z,45.59
2018-09-21T00:20:31.283Z,45.83
2018-09-21T00:22:59.578Z,46.25
2018-09-21T00:25:27.935Z,45.66
2018-09-21T00:27:56.288Z,47.18
2018-09-21T00:30:24.697Z,46.71
2018-09-21T00:32:52.968Z,46.50
2018-09-21T00:35:21.414Z,46.56
2018-09-21T00:37:49.789Z,46.90
2018-09-21T00:40:18.120Z,46.92
2018-09-21T00:42:46.485Z,46.91
2018-09-21T00:45:14.836Z,46.69
2018-09-21T00:47:43.120Z,46.62
2018-09-21T00:50:11.452Z,46.51
2018-09-21T00:52:39.839Z,46.16
2018-09-21T00:55:08.256Z,46.41
2018-09-21T00:57:36.601Z,46.82
2018-09-21T01:00:05.496Z,46.43
2018-09-21T01:02:33.955Z,46.30
2018-09-21T01:05:02.332Z,46.31
2018-09-21T01:07:30.810Z,46.52
2018-09-21T01:09:59.110Z,46.64
2018-09-21T01:12:27.484Z,46.66
2018-09-21T01:14:55.806Z,46.83
2018-09-21T01:17:24.512Z,47.09
2018-09-21T01:19:52.882Z,47.01
2018-09-21T01:22:21.235Z,46.55
2018-09-21T01:24:49.717Z,46.95
2018-09-21T01:27:18.053Z,47.29
2018-09-21T01:29:46.347Z,47.49
2018-09-21T01:32:14.797Z,46.45
2018-09-21T01:34:43.132Z,46.84
2018-09-21T01:37:11.448Z,46.82
2018-09-21T01:39:39.821Z,46.01
2018-09-21T01:42:08.123Z,46.24
2018-09-21T01:44:36.443Z,45.92
2018-09-21T01:47:04.990Z,45.79
2018-09-21T01:49:33.620Z,46.12
2018-09-21T01:52:02.730Z,46.60
2018-09-21T01:54:31.116Z,45.79
2018-09-21T01:56:59.441Z,46.04
2018-09-21T01:59:27.779Z,45.85
2018-09-21T02:01:56.110Z,46.36
2018-09-21T02:04:29.453Z,46.33
2018-09-21T02:06:57.855Z,46.31
2018-09-21T02:09:26.274Z,47.21
2018-09-21T02:11:54.582Z,46.02
2018-09-21T02:14:23.052Z,46.67
2018-09-21T02:16:51.652Z,46.23
2018-09-21T02:19:20.283Z,46.55
2018-09-21T02:21:48.681Z,45.76
2018-09-21T02:24:17.405Z,46.15
2018-09-21T02:26:45.707Z,45.95
2018-09-21T02:29:14.035Z,46.80
2018-09-21T02:31:42.397Z,46.60
2018-09-21T02:34:10.799Z,46.78
2018-09-21T02:36:39.218Z,46.43
2018-09-21T02:39:08.586Z,47.29
2018-09-21T02:41:37.262Z,46.76
2018-09-21T02:44:05.967Z,47.09
2018-09-21T02:46:34.729Z,47.30
2018-09-21T02:49:03.325Z,47.11
2018-09-21T02:51:33.027Z,47.61
2018-09-21T02:54:01.310Z,47.33
2018-09-21T02:56:29.729Z,47.52
2018-09-21T02:58:58.069Z,47.66
2018-09-21T03:01:26.566Z,48.17
2018-09-21T03:03:54.883Z,47.70
2018-09-21T03:06:23.260Z,47.57
2018-09-21T03:08:51.679Z,47.88
2018-09-21T03:11:19.968Z,47.70
2018-09-21T03:13:48.361Z,48.42
2018-09-21T03:16:16.671Z,48.18
2018-09-21T03:18:44.956Z,48.00
2018-09-21T03:21:13.312Z,48.38
2018-09-21T03:23:41.667Z,48.51
2018-09-21T03:26:09.927Z,48.07
2018-09-21T03:28:38.371Z,48.76
2018-09-21T03:31:07.219Z,49.12
2018-09-21T03:33:35.667Z,48.52
2018-09-21T03:36:04.021Z,48.89
2018-09-21T03:38:33.818Z,49.43
2018-09-21T03:41:02.128Z,49.35
2018-09-21T03:43:30.504Z,49.66
2018-09-21T03:45:58.824Z,49.56
2018-09-21T03:48:28.005Z,49.72
2018-09-21T03:50:56.351Z,49.08
2018-09-21T03:53:24.683Z,49.86
2018-09-21T03:55:53.753Z,50.09
2018-09-21T03:58:22.135Z,49.94
2018-09-21T04:00:50.467Z,50.11
2018-09-21T04:03:18.807Z,50.22
2018-09-21T04:05:47.165Z,49.86
2018-09-21T04:08:15.568Z,49.73
2018-09-21T04:10:43.949Z,49.29
2018-09-21T04:13:12.263Z,50.07
2018-09-21T04:15:40.600Z,50.20
2018-09-21T04:18:08.961Z,50.44
2018-09-21T04:20:37.272Z,51.00
2018-09-21T04:23:05.601Z,49.18
2018-09-21T04:25:33.836Z,50.41
2018-09-21T04:28:02.149Z,47.15
2018-09-21T04:30:30.492Z,46.89
2018-09-21T04:32:59.361Z,47.20
2018-09-21T04:35:27.834Z,47.90
2018-09-21T04:37:56.200Z,48.78
2018-09-21T04:40:24.741Z,48.79
2018-09-21T04:42:53.597Z,48.29
2018-09-21T04:45:22.190Z,48.49
2018-09-21T04:47:50.506Z,48.36
2018-09-21T04:50:18.837Z,49.09
2018-09-21T04:52:47.167Z,48.70
2018-09-21T04:55:15.606Z,48.37
2018-09-21T04:57:43.954Z,48.65
2018-09-21T05:00:12.352Z,48.12
2018-09-21T05:02:40.734Z,48.05
2018-09-21T05:05:09.127Z,48.75
2018-09-21T05:07:37.593Z,47.81
2018-09-21T05:10:06.116Z,47.49
2018-09-21T05:12:34.469Z,46.44
2018-09-21T05:15:02.767Z,51.29
2018-09-21T05:17:31.535Z,45.72
2018-09-21T05:20:00.603Z,45.19
2018-09-21T05:22:29.489Z,46.67
2018-09-21T05:24:57.979Z,45.97
2018-09-21T05:27:26.408Z,46.10
2018-09-21T05:29:54.796Z,44.96
2018-09-21T05:32:23.790Z,43.54
2018-09-21T05:34:52.188Z,44.95
2018-09-21T05:37:20.896Z,44.45
2018-09-21T05:39:49.216Z,47.32
2018-09-21T05:42:17.515Z,43.08
2018-09-21T05:44:45.834Z,43.38
2018-09-21T05:47:14.361Z,46.07
2018-09-21T05:49:42.924Z,42.76
2018-09-21T05:52:11.732Z,44.55
2018-09-21T05:54:40.040Z,42.96
2018-09-21T05:57:08.352Z,42.46
2018-09-21T05:59:36.692Z,43.14
2018-09-21T06:02:05.090Z,43.06
2018-09-21T06:04:33.500Z,43.73
2018-09-21T06:07:01.768Z,43.74
2018-09-21T06:09:30.099Z,42.34
2018-09-21T06:11:58.557Z,42.92
2018-09-21T06:14:26.999Z,42.64
2018-09-21T06:16:55.398Z,41.47
2018-09-21T06:19:23.700Z,41.27
2018-09-21T06:21:52.289Z,43.98
2018-09-21T06:24:21.615Z,40.82
2018-09-21T06:26:50.250Z,40.57
2018-09-21T06:29:19.099Z,42.10
2018-09-21T06:31:47.395Z,40.72
2018-09-21T06:34:15.731Z,39.90
2018-09-21T06:36:44.068Z,40.87
2018-09-21T06:39:12.673Z,40.88
2018-09-21T06:41:41.172Z,41.40
2018-09-21T06:44:10.901Z,40.13
2018-09-21T06:46:39.281Z,40.34
2018-09-21T06:49:07.630Z,40.56
2018-09-21T06:51:35.949Z,39.88
2018-09-21T06:54:04.261Z,39.96
2018-09-21T06:56:32.619Z,40.33
2018-09-21T06:59:00.904Z,39.86
2018-09-21T07:01:29.338Z,39.32
2018-09-21T07:03:57.645Z,38.70
2018-09-21T07:06:25.925Z,39.22
2018-09-21T07:08:54.270Z,39.29
2018-09-21T07:11:22.598Z,37.37
2018-09-21T07:13:50.979Z,37.96
2018-09-21T07:16:19.317Z,38.10
2018-09-21T07:18:47.581Z,37.35
2018-09-21T07:21:15.912Z,37.30
2018-09-21T07:23:44.254Z,37.53
2018-09-21T07:26:12.577Z,37.00
2018-09-21T07:28:40.896Z,36.41
2018-09-21T07:31:09.294Z,35.35
2018-09-21T07:33:37.655Z,35.25
2018-09-21T07:36:06.020Z,35.22
2018-09-21T07:38:34.526Z,34.33
2018-09-21T07:41:02.953Z,34.30
2018-09-21T07:43:31.408Z,33.53
2018-09-21T07:45:59.721Z,32.73
2018-09-21T07:48:28.027Z,33.55
2018-09-21T07:50:56.468Z,32.91
2018-09-21T07:53:24.794Z,32.93
2018-09-21T07:55:53.182Z,32.86
2018-09-21T07:58:21.692Z,32.04
2018-09-21T08:00:50.057Z,32.93
2018-09-21T08:03:18.482Z,31.81
2018-09-21T08:05:46.831Z,32.07
2018-09-21T08:08:15.217Z,32.25
2018-09-21T08:10:43.516Z,31.94
2018-09-21T08:13:11.808Z,30.65
2018-09-21T08:15:40.084Z,31.17
2018-09-21T08:18:08.371Z,30.15
2018-09-21T08:20:36.650Z,30.40
2018-09-21T08:23:04.990Z,29.86
2018-09-21T08:25:33.267Z,29.95
2018-09-21T08:28:01.643Z,29.51
2018-09-21T08:30:29.965Z,30.57
2018-09-21T08:32:58.229Z,29.64
2018-09-21T08:35:26.470Z,29.79
2018-09-21T08:37:54.826Z,30.41
2018-09-21T08:40:23.310Z,29.83
2018-09-21T08:42:51.559Z,29.60
2018-09-21T08:45:19.857Z,29.07
2018-09-21T08:47:48.098Z,29.44
2018-09-21T08:50:16.345Z,29.20
2018-09-21T08:52:44.640Z,28.37
2018-09-21T08:55:12.969Z,28.91
2018-09-21T08:57:41.257Z,28.00
2018-09-21T09:00:09.524Z,28.69
2018-09-21T09:02:37.822Z,27.83
2018-09-21T09:05:06.397Z,27.59
2018-09-21T09:07:34.743Z,27.51
2018-09-21T09:10:03.062Z,25.57
2018-09-21T09:12:31.320Z,25.72
2018-09-21T09:14:59.587Z,26.12
2018-09-21T09:17:27.953Z,25.60
2018-09-21T09:19:56.235Z,26.02
2018-09-21T09:22:24.493Z,26.18
2018-09-21T09:24:53.024Z,26.10
2018-09-21T09:27:21.378Z,25.62
2018-09-21T09:29:49.666Z,25.61
2018-09-21T09:32:17.946Z,25.74
2018-09-21T09:34:46.289Z,25.28
2018-09-21T09:37:14.596Z,25.86
2018-09-21T09:39:43.028Z,25.84
2018-09-21T09:42:11.291Z,25.79
2018-09-21T09:44:39.592Z,26.06
2018-09-21T09:47:07.864Z,26.24
2018-09-21T09:49:36.303Z,26.31
2018-09-21T09:52:04.745Z,25.27
2018-09-21T09:54:33.160Z,25.08
2018-09-21T09:57:01.460Z,25.81
2018-09-21T09:59:29.783Z,24.40
2018-09-21T10:01:58.056Z,24.72
2018-09-21T10:04:26.384Z,26.27
2018-09-21T10:06:54.637Z,26.26
2018-09-21T10:09:22.903Z,26.07
2018-09-21T10:11:51.209Z,27.10
2018-09-21T10:14:19.469Z,27.10
2018-09-21T10:16:47.747Z,26.25
2018-09-21T10:19:16.016Z,26.00
2018-09-21T10:21:44.487Z,26.56
2018-09-21T10:24:12.823Z,27.46
2018-09-21T10:26:41.392Z,26.77
2018-09-21T10:29:09.677Z,26.04
2018-09-21T10:31:37.988Z,27.12
2018-09-21T10:34:06.392Z,28.74
2018-09-21T10:36:34.900Z,28.17
2018-09-21T10:39:03.286Z,27.77
2018-09-21T10:41:31.540Z,27.92
2018-09-21T10:43:59.867Z,27.16
2018-09-21T10:46:28.196Z,27.23
2018-09-21T10:48:56.536Z,28.08
2018-09-21T10:51:24.910Z,27.56
2018-09-21T10:53:53.202Z,27.25
2018-09-21T10:56:21.481Z,26.29
2018-09-21T10:58:49.838Z,26.78
2018-09-21T11:01:18.120Z,25.83
2018-09-21T11:03:46.872Z,26.45
2018-09-21T11:06:15.284Z,26.25
2018-09-21T11:08:43.657Z,26.33
2018-09-21T11:11:11.966Z,26.01
2018-09-21T11:13:40.456Z,26.41
2018-09-21T11:16:08.814Z,27.18
2018-09-21T11:18:37.039Z,27.37
2018-09-21T11:21:05.326Z,28.60
2018-09-21T11:23:34.346Z,27.77
2018-09-21T11:26:02.738Z,27.67
2018-09-21T11:28:31.022Z,28.28
2018-09-21T11:30:59.333Z,27.53
2018-09-21T11:33:27.616Z,27.32
2018-09-21T11:35:56.195Z,27.41
2018-09-21T11:38:24.722Z,27.02
2018-09-21T11:40:53.059Z,26.22
2018-09-21T11:43:21.511Z,27.21
2018-09-21T11:45:50.271Z,28.73
2018-09-21T11:48:18.797Z,27.37
2018-09-21T11:50:47.468Z,28.27
2018-09-21T11:53:16.167Z,27.32
2018-09-21T11:55:44.501Z,27.18
2018-09-21T11:58:13.384Z,26.92
2018-09-21T12:00:41.655Z,28.38
2018-09-21T12:03:10.089Z,26.97
2018-09-21T12:05:38.418Z,27.31
2018-09-21T12:08:06.698Z,28.15
2018-09-21T12:10:35.830Z,28.14
2018-09-21T12:13:04.226Z,27.17
2018-09-21T12:15:32.459Z,27.62
2018-09-21T12:18:00.864Z,27.77
2018-09-21T12:20:29.182Z,28.53
2018-09-21T12:22:57.588Z,27.56
2018-09-21T12:25:25.824Z,27.34
2018-09-21T12:27:54.370Z,27.70
2018-09-21T12:30:22.836Z,28.27
2018-09-21T12:32:51.095Z,27.86
2018-09-21T12:35:19.554Z,28.15
2018-09-21T12:37:47.868Z,28.30
2018-09-21T12:40:20.020Z,28.45
2018-09-21T12:42:48.269Z,27.95
2018-09-21T12:45:16.745Z,27.13
2018-09-21T12:47:45.007Z,27.42
2018-09-21T12:50:13.408Z,27.45
2018-09-21T12:52:41.688Z,27.38
2018-09-21T12:55:10.038Z,28.77
2018-09-21T12:57:38.557Z,28.60
2018-09-21T13:00:08.428Z,28.62
2018-09-21T13:02:37.254Z,28.51
2018-09-21T13:05:05.656Z,29.49
2018-09-21T13:07:34.006Z,28.77
2018-09-21T13:10:02.296Z,30.86
2018-09-21T13:12:30.677Z,30.56
2018-09-21T13:14:58.946Z,30.41
2018-09-21T13:17:27.546Z,29.29
2018-09-21T13:19:55.864Z,29.49
2018-09-21T13:22:24.322Z,29.85
2018-09-21T13:24:52.644Z,30.10
2018-09-21T13:27:20.897Z,29.94
2018-09-21T13:29:49.167Z,30.58
2018-09-21T13:32:17.648Z,28.73
2018-09-21T13:34:45.972Z,30.27
2018-09-21T13:37:14.263Z,29.93
2018-09-21T13:39:42.601Z,29.16
2018-09-21T13:42:10.985Z,28.61
2018-09-21T13:44:39.327Z,28.71
2018-09-21T13:47:07.645Z,29.19
2018-09-21T13:49:35.898Z,28.88
2018-09-21T13:52:04.353Z,28.75
2018-09-21T13:54:32.598Z,29.35
2018-09-21T13:57:00.941Z,29.19
2018-09-21T13:59:29.395Z,29.05
2018-09-21T14:01:57.760Z,29.57
2018-09-21T14:04:26.088Z,29.48
2018-09-21T14:06:54.427Z,28.87
2018-09-21T14:09:23.107Z,30.42
2018-09-21T14:11:51.550Z,29.90
2018-09-21T14:14:20.311Z,28.98
2018-09-21T14:16:48.626Z,28.50
2018-09-21T14:19:16.981Z,29.47
2018-09-21T14:21:45.308Z,30.12
2018-09-21T14:24:14.478Z,29.46
2018-09-21T14:26:42.815Z,30.03
2018-09-21T14:29:11.246Z,29.31
2018-09-21T14:31:39.528Z,29.50
2018-09-21T14:34:08.086Z,30.07
2018-09-21T14:36:36.382Z,29.27
2018-09-21T14:39:06.786Z,30.24
2018-09-21T14:41:35.115Z,30.45
2018-09-21T14:44:03.851Z,30.00
2018-09-21T14:46:32.196Z,29.57
2018-09-21T14:49:00.490Z,29.22
2018-09-21T14:51:29.056Z,28.52
2018-09-21T14:53:57.365Z,28.06
2018-09-21T14:56:25.712Z,26.67
2018-09-21T14:58:54.036Z,25.56
2018-09-21T15:01:22.491Z,25.79
2018-09-21T15:03:50.792Z,25.18
2018-09-21T15:06:19.407Z,25.71
2018-09-21T15:08:47.811Z,25.04
2018-09-21T15:11:16.195Z,25.28
2018-09-21T15:13:44.499Z,25.78
2018-09-21T15:16:12.853Z,25.28
2018-09-21T15:18:41.238Z,25.32
2018-09-21T15:21:09.504Z,25.51
2018-09-21T15:23:37.826Z,26.14
2018-09-21T15:26:06.240Z,25.70
2018-09-21T15:28:34.624Z,25.25
2018-09-21T15:31:02.904Z,26.04
2018-09-21T15:33:31.177Z,32.27
2018-09-21T15:35:59.675Z,33.82
2018-09-21T15:38:28.065Z,38.35
2018-09-21T15:40:56.364Z,38.73
2018-09-21T15:43:24.959Z,40.67
2018-09-21T15:45:53.265Z,42.97
2018-09-21T15:48:21.579Z,48.68
2018-09-21T15:50:50.136Z,50.87
2018-09-21T15:53:18.499Z,49.95
2018-09-21T15:55:46.829Z,52.11
2018-09-21T15:58:15.298Z,51.04
2018-09-21T16:00:43.590Z,51.80
2018-09-21T16:03:11.848Z,52.22
2018-09-21T16:05:40.207Z,52.38
2018-09-21T16:08:08.556Z,49.76
2018-09-21T16:10:36.959Z,51.06
2018-09-21T16:13:05.237Z,49.69
2018-09-21T16:15:33.534Z,49.43
2018-09-21T16:18:02.016Z,51.71
2018-09-21T16:20:30.289Z,52.47
2018-09-21T16:22:58.638Z,51.92
2018-09-21T16:25:27.229Z,52.22
2018-09-21T16:27:55.553Z,50.46
2018-09-21T16:30:23.948Z,48.69
2018-09-21T16:32:52.426Z,46.84
2018-09-21T16:35:20.808Z,44.35
2018-09-21T16:37:49.287Z,43.29
2018-09-21T16:40:20.040Z,43.20
2018-09-21T16:42:48.312Z,46.96
2018-09-21T16:45:16.637Z,48.29
2018-09-21T16:47:44.992Z,48.48
2018-09-21T16:50:13.421Z,46.93
2018-09-21T16:52:41.823Z,48.62
2018-09-21T16:55:10.117Z,48.63
2018-09-21T16:57:38.436Z,49.74
2018-09-21T17:00:07.923Z,49.40
2018-09-21T17:02:36.252Z,48.75
2018-09-21T17:05:04.588Z,47.84
2018-09-21T17:07:33.040Z,47.54
2018-09-21T17:10:01.470Z,47.80
2018-09-21T17:12:29.911Z,48.00
2018-09-21T17:14:59.170Z,45.63
2018-09-21T17:17:27.505Z,46.76
2018-09-21T17:19:55.859Z,45.01
2018-09-21T17:22:24.493Z,45.33
2018-09-21T17:24:52.836Z,40.15
2018-09-21T17:27:21.226Z,44.94
2018-09-21T17:29:49.830Z,45.43
2018-09-21T17:32:18.338Z,46.45
2018-09-21T17:34:46.600Z,46.70
2018-09-21T17:37:14.943Z,44.75
2018-09-21T17:39:43.226Z,47.22
2018-09-21T17:42:11.574Z,47.52
2018-09-21T17:44:39.986Z,47.84
2018-09-21T17:47:08.551Z,47.74
2018-09-21T17:49:36.856Z,47.78
2018-09-21T17:52:05.347Z,45.95
2018-09-21T17:54:33.776Z,47.82
2018-09-21T17:57:02.051Z,48.75
2018-09-21T17:59:30.397Z,49.03
2018-09-21T18:01:58.702Z,50.37
2018-09-21T18:04:27.106Z,50.53
2018-09-21T18:06:55.742Z,49.83
2018-09-21T18:09:24.089Z,51.60
2018-09-21T18:11:52.565Z,50.58
2018-09-21T18:14:21.111Z,48.86
2018-09-21T18:16:49.421Z,49.72
2018-09-21T18:19:17.801Z,48.15
2018-09-21T18:21:46.088Z,48.21
2018-09-21T18:24:14.452Z,47.60
2018-09-21T18:26:42.790Z,47.87
2018-09-21T18:29:11.901Z,46.03
2018-09-21T18:31:40.205Z,48.87
2018-09-21T18:34:08.536Z,49.18
2018-09-21T18:36:36.887Z,47.48
2018-09-21T18:39:06.736Z,47.74
2018-09-21T18:41:35.085Z,46.82
2018-09-21T18:44:03.959Z,46.16
2018-09-21T18:46:32.374Z,48.33
2018-09-21T18:49:00.978Z,52.09
2018-09-21T18:51:29.279Z,47.69
2018-09-21T18:53:57.631Z,46.94
2018-09-21T18:56:25.927Z,51.65
2018-09-21T18:58:54.296Z,44.92
2018-09-21T19:01:22.782Z,46.52
2018-09-21T19:03:51.232Z,47.22
2018-09-21T19:06:19.594Z,47.43
2018-09-21T19:08:48.074Z,46.24
2018-09-21T19:11:17.007Z,44.60
2018-09-21T19:13:45.376Z,43.83
2018-09-21T19:16:13.702Z,43.38
2018-09-21T19:18:42.048Z,42.85
2018-09-21T19:21:10.368Z,45.15
2018-09-21T19:23:38.681Z,46.25
2018-09-21T19:26:07.266Z,44.47
2018-09-21T19:28:35.698Z,46.16
2018-09-21T19:31:04.083Z,43.66
2018-09-21T19:33:32.450Z,44.48
2018-09-21T19:36:00.838Z,44.58
2018-09-21T19:38:29.197Z,45.08
2018-09-21T19:40:57.506Z,47.54
2018-09-21T19:43:25.876Z,42.22
2018-09-21T19:45:54.280Z,44.64
2018-09-21T19:48:22.727Z,43.95
2018-09-21T19:50:51.024Z,46.61
2018-09-21T19:53:19.347Z,42.31
2018-09-21T19:55:47.611Z,43.43
2018-09-21T19:58:16.106Z,43.85
2018-09-21T20:00:44.460Z,47.81
2018-09-21T20:03:12.800Z,45.46
2018-09-21T20:05:41.203Z,44.05
2018-09-21T20:08:09.481Z,42.98
2018-09-21T20:10:37.836Z,44.70
2018-09-21T20:13:06.317Z,43.88
2018-09-21T20:15:34.704Z,44.25
2018-09-21T20:18:03.095Z,43.11
2018-09-21T20:20:31.409Z,42.44
2018-09-21T20:22:59.842Z,44.90
2018-09-21T20:25:28.316Z,42.33
2018-09-21T20:27:56.632Z,42.42
2018-09-21T20:30:30.323Z,43.47
2018-09-21T20:33:04.046Z,42.66
2018-09-21T20:35:32.453Z,44.33
2018-09-21T20:38:00.799Z,40.25
2018-09-21T20:40:29.464Z,41.58
2018-09-21T20:42:57.797Z,40.97
2018-09-21T20:45:26.485Z,40.99
2018-09-21T20:47:54.847Z,41.74
2018-09-21T20:50:23.463Z,40.52
2018-09-21T20:52:51.886Z,40.80
2018-09-21T20:55:20.737Z,42.17
2018-09-21T20:57:49.152Z,40.61
2018-09-21T21:00:17.432Z,40.73
2018-09-21T21:02:45.934Z,40.26
2018-09-21T21:05:14.265Z,40.12
2018-09-21T21:07:42.648Z,45.33
2018-09-21T21:10:10.952Z,42.29
2018-09-21T21:12:39.220Z,40.96
2018-09-21T21:15:08.692Z,44.65
2018-09-21T21:17:37.371Z,41.22
2018-09-21T21:20:05.997Z,41.13
2018-09-21T21:22:34.465Z,39.67
2018-09-21T21:25:03.488Z,42.10
2018-09-21T21:27:31.975Z,38.44
2018-09-21T21:30:00.346Z,39.98
2018-09-21T21:32:28.701Z,41.34
2018-09-21T21:34:57.056Z,39.91
2018-09-21T21:37:25.672Z,40.14
2018-09-21T21:39:54.191Z,40.03
2018-09-21T21:42:22.644Z,38.98
2018-09-21T21:44:51.104Z,39.43
2018-09-21T21:47:26.124Z,39.91
2018-09-21T21:49:54.414Z,40.15
2018-09-21T21:52:22.756Z,38.22
2018-09-21T21:54:51.031Z,38.36
2018-09-21T21:57:19.441Z,36.81
2018-09-21T21:59:47.828Z,38.57
2018-09-21T22:02:16.178Z,41.84
2018-09-21T22:04:45.178Z,39.88
2018-09-21T22:07:13.689Z,43.13
2018-09-21T22:09:42.162Z,38.07
2018-09-21T22:12:16.101Z,38.04
2018-09-21T22:14:44.462Z,38.29
2018-09-21T22:17:13.537Z,40.78
2018-09-21T22:19:42.075Z,40.78
2018-09-21T22:22:10.410Z,39.32
2018-09-21T22:24:38.674Z,39.90
2018-09-21T22:27:07.073Z,40.01
2018-09-21T22:29:35.552Z,40.62
2018-09-21T22:32:03.889Z,40.48
2018-09-21T22:34:32.196Z,40.47
2018-09-21T22:37:00.550Z,39.85
2018-09-21T22:39:28.935Z,39.86
2018-09-21T22:41:57.281Z,40.99
2018-09-21T22:44:25.563Z,40.77
2018-09-21T22:46:55.527Z,40.98
2018-09-21T22:49:24.928Z,38.39
2018-09-21T22:51:53.301Z,40.96
2018-09-21T22:54:21.836Z,39.12
2018-09-21T22:56:50.361Z,39.64
2018-09-21T22:59:19.354Z,38.56
2018-09-21T23:01:49.208Z,40.30
2018-09-21T23:04:17.749Z,39.53
2018-09-21T23:06:46.373Z,39.43
2018-09-21T23:09:14.895Z,40.46
2018-09-21T23:11:44.026Z,40.30
2018-09-21T23:14:12.515Z,41.12
2018-09-21T23:16:41.194Z,40.32
2018-09-21T23:19:09.825Z,39.05
2018-09-21T23:21:38.595Z,39.91
2018-09-21T23:24:07.217Z,39.55
2018-09-21T23:26:35.572Z,40.33
2018-09-21T23:29:04.492Z,39.48
2018-09-21T23:31:33.506Z,38.66
2018-09-21T23:34:02.135Z,38.26
2018-09-21T23:36:30.655Z,38.29
2018-09-21T23:38:59.079Z,39.09
2018-09-21T23:41:27.671Z,40.00
2018-09-21T23:43:55.938Z,42.14
2018-09-21T23:46:24.269Z,41.37
2018-09-21T23:48:52.584Z,39.81
2018-09-21T23:51:20.955Z,41.05
2018-09-21T23:53:49.195Z,39.63
2018-09-21T23:56:17.565Z,41.33
2018-09-21T23:58:45.878Z,41.70
